createdAt,value
2023-04-15T00:00:02.435Z,5.65
2023-04-15T00:02:38.063Z,5.30
2023-04-15T00:05:11.416Z,4.58
2023-04-15T00:07:43.881Z,5.28
2023-04-15T00:10:16.528Z,5.30
2023-04-15T00:12:49.185Z,5.70
2023-04-15T00:15:22.758Z,5.62
2023-04-15T00:17:55.382Z,5.70
2023-04-15T00:20:27.968Z,5.25
2023-04-15T00:23:04.235Z,5.95
2023-04-15T00:25:37.327Z,5.70
2023-04-15T00:28:10.193Z,5.65
2023-04-15T00:30:43.360Z,5.37
2023-04-15T00:33:19.597Z,5.65
2023-04-15T00:35:52.253Z,5.70
2023-04-15T00:38:25.337Z,5.60
2023-04-15T00:40:58.238Z,5.90
2023-04-15T00:43:32.459Z,5.45
2023-04-15T00:46:06.399Z,6.08
2023-04-15T00:48:39.171Z,6.17
2023-04-15T00:51:11.827Z,5.97
2023-04-15T00:53:44.809Z,5.95
2023-04-15T00:56:18.224Z,6.15
2023-04-15T01:01:25.891Z,5.60
2023-04-15T01:03:59.192Z,5.75
2023-04-15T01:06:36.081Z,6.42
2023-04-15T01:09:08.853Z,6.37
2023-04-15T01:11:43.716Z,5.50
2023-04-15T01:14:16.476Z,6.37
2023-04-15T01:16:48.934Z,5.65
2023-04-15T01:19:21.626Z,5.78
2023-04-15T01:21:55.386Z,5.17
2023-04-15T01:24:28.987Z,5.58
2023-04-15T01:27:05.114Z,5.50
2023-04-15T01:32:12.275Z,4.65
2023-04-15T01:34:45.258Z,5.70
2023-04-15T01:37:17.869Z,5.40
2023-04-15T01:39:50.817Z,6.17
2023-04-15T01:42:26.599Z,5.83
2023-04-15T01:44:59.820Z,5.65
2023-04-15T01:47:32.503Z,5.92
2023-04-15T01:50:05.437Z,5.67
2023-04-15T01:52:38.554Z,6.37
2023-04-15T01:55:13.411Z,5.87
2023-04-15T01:57:47.510Z,6.42
2023-04-15T02:00:20.343Z,6.45
2023-04-15T02:02:53.284Z,6.50
2023-04-15T02:05:26.056Z,6.42
2023-04-15T02:07:59.103Z,5.97
2023-04-15T02:10:31.922Z,5.40
2023-04-15T02:13:04.861Z,5.92
2023-04-15T02:15:37.367Z,5.87
2023-04-15T02:18:10.451Z,6.30
2023-04-15T02:20:47.260Z,6.05
2023-04-15T02:23:20.082Z,7.12
2023-04-15T02:25:54.347Z,6.45
2023-04-15T02:28:28.160Z,6.67
2023-04-15T02:31:02.339Z,6.47
2023-04-15T02:33:37.286Z,7.00
2023-04-15T02:36:12.637Z,7.10
2023-04-15T02:38:45.655Z,7.22
2023-04-15T02:41:21.035Z,6.62
2023-04-15T02:43:55.719Z,7.08
2023-04-15T02:46:29.099Z,7.12
2023-04-15T02:49:03.591Z,6.85
2023-04-15T02:51:36.494Z,7.17
2023-04-15T02:54:09.004Z,6.83
2023-04-15T02:56:42.102Z,6.70
2023-04-15T02:59:14.898Z,6.78
2023-04-15T03:01:47.539Z,6.87
2023-04-15T03:04:21.366Z,6.70
2023-04-15T03:06:55.857Z,6.70
2023-04-15T03:09:28.911Z,7.00
2023-04-15T03:12:02.478Z,6.83
2023-04-15T03:14:36.157Z,7.73
2023-04-15T03:17:09.160Z,6.58
2023-04-15T03:19:43.469Z,7.10
2023-04-15T03:22:17.052Z,7.97
2023-04-15T03:24:50.766Z,7.62
2023-04-15T03:27:23.674Z,6.85
2023-04-15T03:29:58.418Z,6.78
2023-04-15T03:32:32.650Z,7.78
2023-04-15T03:35:05.622Z,7.33
2023-04-15T03:37:39.184Z,7.55
2023-04-15T03:40:13.336Z,7.25
2023-04-15T03:42:46.302Z,7.87
2023-04-15T03:45:19.853Z,7.53
2023-04-15T03:47:52.973Z,7.67
2023-04-15T03:50:25.669Z,7.20
2023-04-15T03:52:58.954Z,7.60
2023-04-15T03:55:31.881Z,7.72
2023-04-15T03:58:05.591Z,7.22
2023-04-15T04:00:38.476Z,7.83
2023-04-15T04:03:12.356Z,7.33
2023-04-15T04:05:45.782Z,7.55
2023-04-15T04:08:19.699Z,7.47
2023-04-15T04:10:52.550Z,7.92
2023-04-15T04:13:25.979Z,7.40
2023-04-15T04:15:59.163Z,8.08
2023-04-15T04:18:34.318Z,8.13
2023-04-15T04:23:40.139Z,7.95
2023-04-15T04:26:12.903Z,7.65
2023-04-15T04:28:45.596Z,8.15
2023-04-15T04:31:18.751Z,8.58
2023-04-15T04:33:53.030Z,8.53
2023-04-15T04:36:26.843Z,7.80
2023-04-15T04:38:59.588Z,8.28
2023-04-15T04:41:33.185Z,8.40
2023-04-15T04:44:05.883Z,8.65
2023-04-15T04:46:39.696Z,8.60
2023-04-15T04:49:12.281Z,8.58
2023-04-15T04:51:47.185Z,9.13
2023-04-15T04:54:21.950Z,9.67
2023-04-15T04:56:54.945Z,9.53
2023-04-15T04:59:28.375Z,8.93
2023-04-15T05:02:01.156Z,9.13
2023-04-15T05:04:34.658Z,9.23
2023-04-15T05:07:08.539Z,9.63
2023-04-15T05:09:42.166Z,8.63
2023-04-15T05:12:15.307Z,9.10
2023-04-15T05:14:48.431Z,9.45
2023-04-15T05:17:22.242Z,9.30
2023-04-15T05:19:55.397Z,9.90
2023-04-15T05:22:28.909Z,9.40
2023-04-15T05:25:02.050Z,10.00
2023-04-15T05:27:35.798Z,8.83
2023-04-15T05:30:10.669Z,9.30
2023-04-15T05:32:44.656Z,9.30
2023-04-15T05:35:17.790Z,8.55
2023-04-15T05:37:50.483Z,8.05
2023-04-15T05:40:23.223Z,8.28
2023-04-15T05:42:56.163Z,8.40
2023-04-15T05:45:29.614Z,7.53
2023-04-15T05:48:03.454Z,8.63
2023-04-15T05:50:36.495Z,8.38
2023-04-15T05:55:44.448Z,7.35
2023-04-15T05:58:17.088Z,7.37
2023-04-15T06:00:50.835Z,7.75
2023-04-15T06:03:24.198Z,7.70
2023-04-15T06:05:57.172Z,7.08
2023-04-15T06:08:29.691Z,7.05
2023-04-15T06:11:02.599Z,7.05
2023-04-15T06:13:35.854Z,7.83
2023-04-15T06:16:09.404Z,6.75
2023-04-15T06:18:41.982Z,7.03
2023-04-15T06:21:14.496Z,7.10
2023-04-15T06:23:47.875Z,7.15
2023-04-15T06:26:20.395Z,7.03
2023-04-15T06:28:53.433Z,6.65
2023-04-15T06:31:26.276Z,7.65
2023-04-15T06:33:59.270Z,7.40
2023-04-15T06:36:32.831Z,7.08
2023-04-15T06:39:05.974Z,6.63
2023-04-15T06:41:38.755Z,6.37
2023-04-15T06:44:11.668Z,7.08
2023-04-15T06:46:45.860Z,6.20
2023-04-15T06:49:18.285Z,7.28
2023-04-15T06:51:51.720Z,6.45
2023-04-15T06:54:25.938Z,6.12
2023-04-15T06:56:58.689Z,5.90
2023-04-15T06:59:31.369Z,6.15
2023-04-15T07:02:05.362Z,6.50
2023-04-15T07:04:38.345Z,5.87
2023-04-15T07:07:11.626Z,6.15
2023-04-15T07:09:45.101Z,6.20
2023-04-15T07:12:17.860Z,5.97
2023-04-15T07:14:50.542Z,6.40
2023-04-15T07:17:23.845Z,6.35
2023-04-15T07:19:56.822Z,6.47
2023-04-15T07:22:29.459Z,5.65
2023-04-15T07:25:03.316Z,4.87
2023-04-15T07:27:36.960Z,5.50
2023-04-15T07:30:10.878Z,6.22
2023-04-15T07:32:44.395Z,5.62
2023-04-15T07:35:16.811Z,6.22
2023-04-15T07:37:50.240Z,6.00
2023-04-15T07:40:22.900Z,5.72
2023-04-15T07:43:19.152Z,6.20
2023-04-15T07:45:52.063Z,6.45
2023-04-15T07:48:24.606Z,5.85
2023-04-15T07:50:57.084Z,6.35
2023-04-15T07:53:31.573Z,5.53
2023-04-15T07:56:04.086Z,5.72
2023-04-15T07:58:37.474Z,5.20
2023-04-15T08:01:11.882Z,6.10
2023-04-15T08:03:44.424Z,5.90
2023-04-15T08:06:17.734Z,5.40
2023-04-15T08:08:50.167Z,5.87
2023-04-15T08:11:24.663Z,4.87
2023-04-15T08:16:30.051Z,5.60
2023-04-15T08:19:02.774Z,5.25
2023-04-15T08:21:36.192Z,6.15
2023-04-15T08:24:08.829Z,6.67
2023-04-15T08:26:42.407Z,6.87
2023-04-15T08:29:15.263Z,6.75
2023-04-15T08:31:48.339Z,6.00
2023-04-15T08:34:21.447Z,6.92
2023-04-15T08:36:55.206Z,6.40
2023-04-15T08:39:28.499Z,5.92
2023-04-15T08:42:07.514Z,6.00
2023-04-15T08:44:40.741Z,5.55
2023-04-15T08:47:15.612Z,5.75
2023-04-15T08:49:49.989Z,6.62
2023-04-15T08:52:22.773Z,6.33
2023-04-15T08:54:59.222Z,6.40
2023-04-15T08:57:32.821Z,6.87
2023-04-15T09:00:05.987Z,6.50
2023-04-15T09:02:39.418Z,6.60
2023-04-15T09:05:11.983Z,5.90
2023-04-15T09:07:44.482Z,6.15
2023-04-15T09:10:17.318Z,5.75
2023-04-15T09:12:50.931Z,6.35
2023-04-15T09:15:25.820Z,5.80
2023-04-15T09:17:58.425Z,5.37
2023-04-15T09:20:30.862Z,4.80
2023-04-15T09:23:03.457Z,4.80
2023-04-15T09:25:36.341Z,5.05
2023-04-15T09:28:09.184Z,5.08
2023-04-15T09:30:45.495Z,4.80
2023-04-15T09:33:18.224Z,4.35
2023-04-15T09:36:16.686Z,5.00
2023-04-15T09:39:01.955Z,5.25
2023-04-15T09:41:35.143Z,5.15
2023-04-15T09:44:07.788Z,5.12
2023-04-15T09:46:47.217Z,5.17
2023-04-15T09:49:21.180Z,4.87
2023-04-15T09:52:04.926Z,4.75
2023-04-15T09:54:39.453Z,4.78
2023-04-15T09:59:55.726Z,4.90
2023-04-15T10:02:28.553Z,5.50
2023-04-15T10:05:01.357Z,5.55
2023-04-15T10:07:35.452Z,5.35
2023-04-15T10:10:09.618Z,5.53
2023-04-15T10:15:19.420Z,4.60
2023-04-15T10:17:52.328Z,4.65
2023-04-15T10:20:24.914Z,5.30
2023-04-15T10:22:57.789Z,6.03
2023-04-15T10:25:31.080Z,5.35
2023-04-15T10:28:03.734Z,5.17
2023-04-15T10:30:37.519Z,5.42
2023-04-15T10:33:10.767Z,4.87
2023-04-15T10:35:43.238Z,5.45
2023-04-15T10:38:39.274Z,5.08
2023-04-15T10:41:25.320Z,4.85
2023-04-15T10:44:04.976Z,4.65
2023-04-15T10:46:46.862Z,5.58
2023-04-15T10:49:27.994Z,5.85
2023-04-15T10:52:01.211Z,5.75
2023-04-15T10:54:35.984Z,6.05
2023-04-15T10:57:18.930Z,6.22
2023-04-15T11:00:11.633Z,5.40
2023-04-15T11:02:56.536Z,5.95
2023-04-15T11:05:52.462Z,5.85
2023-04-15T11:08:46.471Z,5.40
2023-04-15T11:11:19.463Z,5.97
2023-04-15T11:13:55.727Z,5.95
2023-04-15T11:16:28.746Z,5.92
2023-04-15T11:19:01.946Z,5.80
2023-04-15T11:21:35.788Z,4.90
2023-04-15T11:24:08.497Z,5.60
2023-04-15T11:26:41.280Z,6.17
2023-04-15T11:29:19.742Z,5.22
2023-04-15T11:31:52.407Z,5.15
2023-04-15T11:34:25.163Z,5.72
2023-04-15T11:36:59.751Z,5.67
2023-04-15T11:39:32.440Z,5.53
2023-04-15T11:42:05.454Z,5.95
2023-04-15T11:44:39.317Z,5.20
2023-04-15T11:47:27.400Z,5.70
2023-04-15T11:50:01.492Z,5.15
2023-04-15T11:52:35.161Z,6.15
2023-04-15T11:55:09.270Z,5.37
2023-04-15T12:00:14.275Z,6.67
2023-04-15T12:02:48.786Z,5.80
2023-04-15T12:05:22.089Z,6.25
2023-04-15T12:08:01.617Z,6.72
2023-04-15T12:10:34.270Z,6.17
2023-04-15T12:13:09.709Z,15.70
2023-04-15T12:15:42.457Z,7.28
2023-04-15T12:18:21.605Z,6.17
2023-04-15T12:20:54.889Z,6.12
2023-04-15T12:23:27.831Z,6.20
2023-04-15T12:26:00.381Z,6.53
2023-04-15T12:28:33.343Z,6.37
2023-04-15T12:31:13.611Z,6.20
2023-04-15T12:33:49.973Z,6.25
2023-04-15T12:36:22.561Z,6.00
2023-04-15T12:38:55.267Z,6.30
2023-04-15T12:41:27.725Z,6.45
2023-04-15T12:44:00.102Z,5.95
2023-04-15T12:46:32.897Z,6.53
2023-04-15T12:49:05.419Z,6.25
2023-04-15T12:51:38.001Z,5.95
2023-04-15T12:54:10.452Z,6.30
2023-04-15T12:56:42.895Z,6.50
2023-04-15T12:59:16.817Z,8.18
2023-04-15T13:01:49.859Z,5.83
2023-04-15T13:04:22.714Z,6.78
2023-04-15T13:06:56.340Z,5.85
2023-04-15T13:09:28.971Z,6.50
2023-04-15T13:12:02.002Z,6.15
2023-04-15T13:14:34.689Z,5.90
2023-04-15T13:17:08.876Z,6.53
2023-04-15T13:22:15.103Z,7.33
2023-04-15T13:24:47.746Z,6.67
2023-04-15T13:27:20.104Z,7.45
2023-04-15T13:29:53.007Z,7.10
2023-04-15T13:32:25.629Z,6.08
2023-04-15T13:34:58.326Z,6.97
2023-04-15T13:37:31.205Z,6.78
2023-04-15T13:40:03.709Z,6.30
2023-04-15T13:42:36.619Z,7.05
2023-04-15T13:45:10.324Z,6.12
2023-04-15T13:47:43.608Z,6.10
2023-04-15T13:50:16.307Z,6.10
2023-04-15T13:52:48.911Z,6.15
2023-04-15T13:55:25.469Z,6.22
2023-04-15T13:57:57.799Z,6.55
2023-04-15T14:00:30.499Z,6.78
2023-04-15T14:03:03.055Z,7.42
2023-04-15T14:05:36.453Z,6.65
2023-04-15T14:08:09.608Z,6.40
2023-04-15T14:10:44.956Z,6.90
2023-04-15T14:13:17.426Z,6.35
2023-04-15T14:15:49.817Z,6.40
2023-04-15T14:18:22.629Z,6.22
2023-04-15T14:20:55.272Z,7.12
2023-04-15T14:23:28.280Z,6.47
2023-04-15T14:26:00.810Z,6.92
2023-04-15T14:28:33.502Z,6.15
2023-04-15T14:31:06.432Z,5.83
2023-04-15T14:33:40.500Z,5.40
2023-04-15T14:36:13.145Z,5.83
2023-04-15T14:38:47.434Z,6.10
2023-04-15T14:41:20.273Z,6.10
2023-04-15T14:46:37.434Z,5.27
2023-04-15T14:49:10.085Z,6.30
2023-04-15T14:51:43.639Z,6.17
2023-04-15T14:54:16.369Z,5.53
2023-04-15T14:56:49.002Z,5.37
2023-04-15T14:59:21.445Z,5.83
2023-04-15T15:01:54.993Z,6.05
2023-04-15T15:04:27.651Z,5.72
2023-04-15T15:07:00.891Z,6.75
2023-04-15T15:09:34.964Z,5.65
2023-04-15T15:12:07.753Z,5.95
2023-04-15T15:14:41.024Z,6.72
2023-04-15T15:17:13.532Z,6.65
2023-04-15T15:19:46.319Z,6.33
2023-04-15T15:22:21.281Z,7.15
2023-04-15T15:24:54.082Z,7.20
2023-04-15T15:27:27.074Z,6.83
2023-04-15T15:30:00.227Z,6.08
2023-04-15T15:32:34.069Z,6.47
2023-04-15T15:35:07.495Z,6.97
2023-04-15T15:37:40.047Z,7.08
2023-04-15T15:40:13.592Z,6.97
2023-04-15T15:42:49.475Z,6.87
2023-04-15T15:45:22.144Z,6.70
2023-04-15T15:47:54.534Z,6.37
2023-04-15T15:50:27.054Z,6.85
2023-04-15T15:52:59.951Z,6.60
2023-04-15T15:55:33.297Z,6.00
2023-04-15T15:58:05.854Z,8.43
2023-04-15T16:00:38.398Z,6.72
2023-04-15T16:03:11.059Z,6.40
2023-04-15T16:05:44.148Z,6.25
2023-04-15T16:08:17.302Z,6.55
2023-04-15T16:10:51.178Z,6.65
2023-04-15T16:13:24.051Z,6.53
2023-04-15T16:15:56.780Z,7.20
2023-04-15T16:18:29.301Z,7.35
2023-04-15T16:21:01.800Z,8.13
2023-04-15T16:23:35.722Z,7.55
2023-04-15T16:26:08.501Z,7.20
2023-04-15T16:28:40.976Z,5.92
2023-04-15T16:31:14.878Z,6.85
2023-04-15T16:33:47.456Z,7.12
2023-04-15T16:36:20.037Z,6.17
2023-04-15T16:38:53.438Z,5.85
2023-04-15T16:41:26.117Z,6.17
2023-04-15T16:43:59.301Z,7.60
2023-04-15T16:46:32.695Z,6.97
2023-04-15T16:49:05.774Z,6.87
2023-04-15T16:51:38.640Z,6.90
2023-04-15T16:54:11.099Z,6.90
2023-04-15T16:56:43.937Z,7.00
2023-04-15T16:59:16.528Z,7.90
2023-04-15T17:01:49.836Z,8.33
2023-04-15T17:04:23.067Z,7.35
2023-04-15T17:06:56.067Z,34.95
2023-04-15T17:09:28.951Z,30.65
2023-04-15T17:12:04.241Z,11.05
2023-04-15T17:14:38.788Z,13.62
2023-04-15T17:17:11.263Z,16.57
2023-04-15T17:19:43.804Z,10.60
2023-04-15T17:22:17.281Z,13.95
2023-04-15T17:24:49.773Z,9.53
2023-04-15T17:27:22.312Z,7.83
2023-04-15T17:29:55.084Z,9.13
2023-04-15T17:32:29.433Z,10.13
2023-04-15T17:35:03.717Z,8.90
2023-04-15T17:40:09.642Z,10.32
2023-04-15T17:42:42.178Z,9.85
2023-04-15T17:45:15.176Z,10.35
2023-04-15T17:47:47.774Z,9.40
2023-04-15T17:50:20.372Z,10.18
2023-04-15T17:52:52.781Z,9.23
2023-04-15T17:55:25.461Z,10.98
2023-04-15T17:57:58.006Z,9.55
2023-04-15T18:00:31.239Z,17.70
2023-04-15T18:03:04.035Z,17.60
2023-04-15T18:05:39.852Z,16.90
2023-04-15T18:08:13.429Z,20.92
2023-04-15T18:10:46.226Z,17.32
2023-04-15T18:13:18.870Z,12.28
2023-04-15T18:15:51.829Z,9.00
2023-04-15T18:18:24.334Z,12.68
2023-04-15T18:20:57.409Z,81.12
2023-04-15T18:23:30.506Z,55.23
2023-04-15T18:26:49.121Z,19.85
2023-04-15T18:29:22.711Z,13.13
2023-04-15T18:31:56.072Z,11.25
2023-04-15T18:34:30.786Z,11.68
2023-04-15T18:37:05.617Z,12.03
2023-04-15T18:39:39.082Z,9.83
2023-04-15T18:42:11.828Z,7.28
2023-04-15T18:44:44.615Z,8.03
2023-04-15T18:47:17.471Z,7.87
2023-04-15T18:49:50.619Z,8.70
2023-04-15T18:52:29.028Z,9.78
2023-04-15T18:55:03.561Z,8.33
2023-04-15T19:00:13.443Z,9.03
2023-04-15T19:02:46.861Z,8.00
2023-04-15T19:05:19.710Z,7.10
2023-04-15T19:07:52.624Z,7.47
2023-04-15T19:10:25.126Z,7.53
2023-04-15T19:12:58.560Z,8.35
2023-04-15T19:15:32.524Z,7.83
2023-04-15T19:18:06.827Z,8.33
2023-04-15T19:20:40.554Z,8.28
2023-04-15T19:23:13.169Z,7.72
2023-04-15T19:25:45.667Z,8.23
2023-04-15T19:28:19.289Z,8.70
2023-04-15T19:30:52.909Z,7.95
2023-04-15T19:33:27.213Z,8.10
2023-04-15T19:36:07.647Z,7.20
2023-04-15T19:38:40.124Z,7.95
2023-04-15T19:41:12.763Z,7.58
2023-04-15T19:43:46.417Z,6.70
2023-04-15T19:46:19.629Z,6.85
2023-04-15T19:48:53.347Z,7.40
2023-04-15T19:51:28.675Z,7.08
2023-04-15T19:54:01.596Z,8.20
2023-04-15T19:56:34.586Z,7.58
2023-04-15T19:59:08.260Z,6.85
2023-04-15T20:01:40.744Z,7.28
2023-04-15T20:04:13.523Z,8.23
2023-04-15T20:06:46.507Z,17.45
2023-04-15T20:09:19.161Z,8.10
2023-04-15T20:12:48.080Z,7.55
2023-04-15T20:14:26.771Z,7.12
2023-04-15T20:16:59.199Z,8.10
2023-04-15T20:19:32.338Z,7.45
2023-04-15T20:22:05.122Z,7.25
2023-04-15T20:24:37.557Z,7.70
2023-04-15T20:27:10.163Z,8.50
2023-04-15T20:29:42.596Z,8.38
2023-04-15T20:32:15.064Z,7.72
2023-04-15T20:34:47.891Z,6.97
2023-04-15T20:37:20.594Z,7.90
2023-04-15T20:39:53.491Z,8.13
2023-04-15T20:42:26.488Z,8.63
2023-04-15T20:44:59.044Z,8.18
2023-04-15T20:47:31.591Z,8.40
2023-04-15T20:50:04.211Z,8.45
2023-04-15T20:52:37.027Z,9.58
2023-04-15T20:55:10.331Z,9.00
2023-04-15T20:57:43.241Z,9.40
2023-04-15T21:00:16.385Z,8.85
2023-04-15T21:02:48.936Z,9.03
2023-04-15T21:05:21.810Z,9.10
2023-04-15T21:07:54.306Z,8.93
2023-04-15T21:10:26.880Z,8.55
2023-04-15T21:12:59.225Z,8.50
2023-04-15T21:15:31.626Z,9.23
2023-04-15T21:18:04.041Z,11.05
2023-04-15T21:20:36.637Z,10.85
2023-04-15T21:23:12.484Z,9.13
2023-04-15T21:25:44.704Z,9.70
2023-04-15T21:28:17.082Z,10.80
2023-04-15T21:30:50.255Z,10.82
2023-04-15T21:33:22.818Z,10.58
2023-04-15T21:35:55.861Z,10.75
2023-04-15T21:38:28.433Z,10.48
2023-04-15T21:41:01.944Z,11.30
2023-04-15T21:43:34.737Z,11.48
2023-04-15T21:46:24.413Z,10.95
2023-04-15T21:48:41.894Z,10.65
2023-04-15T21:51:14.470Z,11.25
2023-04-15T21:53:47.301Z,10.90
2023-04-15T21:56:21.360Z,11.22
2023-04-15T21:59:00.128Z,12.30
2023-04-15T22:01:33.038Z,11.85
2023-04-15T22:04:07.695Z,12.05
2023-04-15T22:06:40.955Z,12.07
2023-04-15T22:09:15.437Z,13.08
2023-04-15T22:11:48.284Z,11.65
2023-04-15T22:14:20.694Z,12.25
2023-04-15T22:16:53.119Z,13.72
2023-04-15T22:19:26.193Z,13.08
2023-04-15T22:21:59.179Z,12.20
2023-04-15T22:24:40.979Z,12.45
2023-04-15T22:27:06.411Z,12.45
2023-04-15T22:29:38.961Z,12.80
2023-04-15T22:32:11.436Z,14.13
2023-04-15T22:34:45.713Z,14.23
2023-04-15T22:37:18.407Z,14.55
2023-04-15T22:39:51.972Z,13.72
2023-04-15T22:42:25.062Z,12.83
2023-04-15T22:44:57.628Z,13.00
2023-04-15T22:47:30.306Z,14.93
2023-04-15T22:50:02.954Z,13.20
2023-04-15T22:52:35.697Z,13.08
2023-04-15T22:55:09.949Z,13.43
2023-04-15T22:57:42.459Z,13.62
2023-04-15T23:00:36.384Z,13.15
2023-04-15T23:03:09.354Z,14.03
2023-04-15T23:05:42.733Z,14.75
2023-04-15T23:08:15.483Z,14.28
2023-04-15T23:10:50.040Z,12.83
2023-04-15T23:13:22.648Z,15.40
2023-04-15T23:15:55.122Z,15.75
2023-04-15T23:18:27.797Z,15.05
2023-04-15T23:21:00.339Z,14.20
2023-04-15T23:23:33.169Z,13.83
2023-04-15T23:26:05.698Z,16.80
2023-04-15T23:28:38.208Z,17.67
2023-04-15T23:31:10.658Z,15.75
2023-04-15T23:33:43.379Z,15.65
2023-04-15T23:36:15.873Z,14.85
2023-04-15T23:38:49.180Z,17.35
2023-04-15T23:41:22.554Z,19.93
2023-04-15T23:43:55.049Z,17.65
2023-04-15T23:46:27.590Z,16.90
2023-04-15T23:49:00.123Z,16.77
2023-04-15T23:51:33.134Z,17.95
2023-04-15T23:54:06.030Z,19.50
2023-04-15T23:56:38.838Z,18.87
2023-04-15T23:59:11.627Z,18.65
